createdAt,value
2019-05-02T00:00:34.769Z,0.00
2019-05-02T00:01:34.763Z,0.00
2019-05-02T00:02:34.755Z,0.00
2019-05-02T00:03:35.961Z,0.00
2019-05-02T00:04:34.746Z,0.00
2019-05-02T00:05:34.738Z,0.00
2019-05-02T00:06:38.006Z,0.00
2019-05-02T00:07:34.722Z,0.00
2019-05-02T00:08:34.714Z,0.00
2019-05-02T00:09:34.711Z,0.00
2019-05-02T00:10:34.700Z,0.00
2019-05-02T00:11:34.698Z,0.00
2019-05-02T00:12:34.688Z,0.00
2019-05-02T00:13:34.682Z,0.00
2019-05-02T00:14:34.679Z,0.00
2019-05-02T00:15:38.219Z,0.00
2019-05-02T00:16:34.660Z,0.00
2019-05-02T00:17:34.653Z,0.00
2019-05-02T00:18:37.092Z,0.00
2019-05-02T00:19:34.642Z,0.00
2019-05-02T00:20:34.632Z,0.00
2019-05-02T00:21:38.235Z,0.00
2019-05-02T00:22:34.619Z,0.00
2019-05-02T00:23:34.612Z,0.00
2019-05-02T00:24:39.341Z,0.00
2019-05-02T00:25:34.599Z,0.00
2019-05-02T00:26:34.597Z,0.00
2019-05-02T00:27:37.698Z,0.00
2019-05-02T00:28:34.577Z,0.00
2019-05-02T00:29:34.575Z,0.00
2019-05-02T00:30:35.846Z,0.00
2019-05-02T00:31:34.560Z,0.00
2019-05-02T00:32:34.553Z,0.00
2019-05-02T00:33:35.841Z,0.00
2019-05-02T00:34:34.534Z,0.00
2019-05-02T00:35:34.529Z,0.00
2019-05-02T00:36:34.523Z,0.00
2019-05-02T00:37:34.514Z,0.00
2019-05-02T00:38:38.505Z,0.00
2019-05-02T00:39:34.504Z,0.00
2019-05-02T00:40:34.492Z,0.00
2019-05-02T00:41:38.374Z,0.00
2019-05-02T00:42:34.480Z,0.00
2019-05-02T00:43:36.374Z,0.00
2019-05-02T00:44:34.467Z,0.00
2019-05-02T00:45:34.460Z,0.00
2019-05-02T00:46:35.072Z,0.00
2019-05-02T00:47:34.446Z,0.00
2019-05-02T00:48:34.438Z,0.00
2019-05-02T00:49:35.390Z,0.00
2019-05-02T00:50:34.423Z,0.00
2019-05-02T00:51:34.416Z,0.00
2019-05-02T00:52:36.628Z,0.00
2019-05-02T00:53:34.407Z,0.00
2019-05-02T00:54:34.397Z,0.00
2019-05-02T00:55:35.590Z,0.00
2019-05-02T00:56:34.379Z,0.00
2019-05-02T00:57:34.371Z,0.00
2019-05-02T00:58:34.365Z,0.00
2019-05-02T00:59:37.797Z,0.00
2019-05-02T01:00:34.358Z,0.00
2019-05-02T01:01:34.347Z,0.00
2019-05-02T01:02:35.891Z,0.00
2019-05-02T01:03:34.332Z,0.00
2019-05-02T01:04:34.324Z,0.00
2019-05-02T01:05:38.456Z,0.00
2019-05-02T01:06:34.310Z,0.00
2019-05-02T01:07:34.303Z,0.00
2019-05-02T01:08:35.634Z,0.00
2019-05-02T01:09:34.288Z,0.00
2019-05-02T01:10:34.280Z,0.00
2019-05-02T01:11:34.276Z,0.00
2019-05-02T01:12:34.265Z,0.00
2019-05-02T01:13:34.259Z,0.00
2019-05-02T01:14:34.254Z,0.00
2019-05-02T01:15:34.239Z,0.00
2019-05-02T01:16:34.239Z,0.00
2019-05-02T01:17:34.231Z,0.00
2019-05-02T01:18:37.217Z,0.00
2019-05-02T01:19:34.217Z,0.00
2019-05-02T01:20:34.218Z,0.00
2019-05-02T01:21:38.729Z,0.00
2019-05-02T01:22:34.193Z,0.00
2019-05-02T01:23:34.191Z,0.00
2019-05-02T01:24:39.214Z,0.00
2019-05-02T01:25:34.175Z,0.00
2019-05-02T01:26:34.165Z,0.00
2019-05-02T01:27:36.130Z,0.00
2019-05-02T01:28:34.152Z,0.00
2019-05-02T01:29:34.153Z,0.00
2019-05-02T01:30:37.184Z,0.00
2019-05-02T01:31:34.152Z,0.00
2019-05-02T01:32:34.122Z,0.00
2019-05-02T01:33:36.869Z,0.00
2019-05-02T01:34:34.107Z,0.00
2019-05-02T01:35:34.108Z,0.00
2019-05-02T01:36:36.675Z,0.00
2019-05-02T01:37:34.090Z,0.00
2019-05-02T01:38:34.081Z,0.00
2019-05-02T01:39:37.915Z,0.00
2019-05-02T01:40:34.062Z,0.00
2019-05-02T01:41:34.108Z,0.00
2019-05-02T01:42:40.107Z,0.00
2019-05-02T01:43:34.042Z,0.00
2019-05-02T01:44:36.442Z,0.00
2019-05-02T01:45:34.026Z,0.00
2019-05-02T01:46:34.020Z,0.00
2019-05-02T01:47:34.350Z,0.00
2019-05-02T01:48:34.006Z,0.00
2019-05-02T01:49:33.997Z,0.00
2019-05-02T01:50:34.733Z,0.00
2019-05-02T01:51:36.668Z,0.00
2019-05-02T01:52:33.993Z,0.00
2019-05-02T01:53:35.632Z,0.00
2019-05-02T01:54:33.966Z,0.00
2019-05-02T01:55:33.955Z,0.00
2019-05-02T01:56:34.886Z,0.00
2019-05-02T01:57:33.941Z,0.00
2019-05-02T01:58:33.940Z,0.00
2019-05-02T01:59:35.090Z,0.00
2019-05-02T02:00:33.919Z,0.00
2019-05-02T02:01:33.912Z,0.00
2019-05-02T02:02:34.105Z,0.00
2019-05-02T02:03:33.895Z,0.00
2019-05-02T02:04:33.888Z,0.00
2019-05-02T02:05:33.882Z,0.00
2019-05-02T02:06:33.878Z,0.00
2019-05-02T02:07:33.867Z,0.00
2019-05-02T02:08:34.070Z,0.00
2019-05-02T02:09:33.852Z,0.00
2019-05-02T02:10:33.847Z,0.00
2019-05-02T02:11:35.782Z,0.00
2019-05-02T02:12:33.830Z,0.00
2019-05-02T02:13:36.428Z,0.00
2019-05-02T02:14:33.816Z,0.00
2019-05-02T02:15:33.808Z,0.00
2019-05-02T02:16:35.204Z,0.00
2019-05-02T02:17:33.799Z,0.00
2019-05-02T02:18:33.786Z,0.00
2019-05-02T02:19:34.628Z,0.00
2019-05-02T02:20:33.775Z,0.00
2019-05-02T02:21:33.764Z,0.00
2019-05-02T02:22:38.626Z,0.00
2019-05-02T02:23:33.753Z,0.00
2019-05-02T02:24:33.743Z,0.00
2019-05-02T02:25:36.192Z,0.00
2019-05-02T02:26:33.732Z,0.00
2019-05-02T02:27:33.725Z,0.00
2019-05-02T02:28:33.719Z,0.00
2019-05-02T02:29:33.707Z,0.00
2019-05-02T02:30:33.702Z,0.00
2019-05-02T02:31:39.568Z,0.00
2019-05-02T02:32:33.683Z,0.00
2019-05-02T02:33:33.677Z,0.00
2019-05-02T02:34:33.675Z,0.00
2019-05-02T02:35:33.672Z,0.00
2019-05-02T02:36:34.631Z,0.00
2019-05-02T02:37:33.646Z,0.00
2019-05-02T02:38:35.493Z,0.00
2019-05-02T02:39:33.636Z,0.00
2019-05-02T02:40:35.567Z,0.00
2019-05-02T02:41:33.617Z,0.00
2019-05-02T02:42:34.211Z,0.00
2019-05-02T02:43:34.985Z,0.00
2019-05-02T02:44:39.698Z,0.00
2019-05-02T02:45:33.592Z,0.00
2019-05-02T02:46:38.078Z,0.00
2019-05-02T02:47:33.579Z,0.00
2019-05-02T02:48:40.295Z,0.00
2019-05-02T02:49:33.564Z,0.00
2019-05-02T02:50:36.720Z,0.00
2019-05-02T02:51:33.547Z,0.00
2019-05-02T02:52:37.929Z,0.00
2019-05-02T02:53:33.530Z,0.00
2019-05-02T02:54:36.471Z,0.00
2019-05-02T02:55:33.518Z,0.00
2019-05-02T02:56:34.628Z,0.00
2019-05-02T02:57:33.505Z,0.00
2019-05-02T02:58:44.006Z,0.00
2019-05-02T02:59:33.487Z,0.00
2019-05-02T03:00:33.477Z,0.00
2019-05-02T03:01:33.472Z,0.00
2019-05-02T03:02:33.466Z,0.00
2019-05-02T03:03:35.332Z,0.00
2019-05-02T03:04:33.454Z,0.00
2019-05-02T03:05:33.444Z,0.00
2019-05-02T03:06:38.195Z,0.00
2019-05-02T03:07:33.429Z,0.00
2019-05-02T03:08:45.185Z,4.00
2019-05-02T03:09:33.415Z,4.00
2019-05-02T03:10:33.404Z,4.00
2019-05-02T03:11:33.400Z,4.00
2019-05-02T03:12:36.253Z,4.00
2019-05-02T03:13:50.812Z,4.00
2019-05-02T03:14:33.379Z,8.00
2019-05-02T03:15:33.370Z,4.00
2019-05-02T03:16:33.363Z,8.00
2019-05-02T03:17:33.356Z,4.00
2019-05-02T03:18:40.397Z,8.00
2019-05-02T03:19:33.346Z,12.00
2019-05-02T03:20:40.122Z,12.00
2019-05-02T03:21:33.326Z,16.00
2019-05-02T03:22:34.865Z,16.00
2019-05-02T03:23:33.312Z,20.00
2019-05-02T03:24:36.551Z,16.00
2019-05-02T03:25:49.769Z,16.00
2019-05-02T03:26:33.299Z,20.00
2019-05-02T03:27:37.166Z,28.00
2019-05-02T03:28:33.274Z,28.00
2019-05-02T03:29:41.399Z,32.00
2019-05-02T03:30:37.326Z,28.00
2019-05-02T03:31:33.254Z,28.00
2019-05-02T03:32:35.887Z,36.00
2019-05-02T03:33:51.542Z,36.00
2019-05-02T03:34:47.436Z,40.00
2019-05-02T03:35:43.380Z,48.00
2019-05-02T03:36:36.253Z,48.00
2019-05-02T03:37:33.212Z,52.00
2019-05-02T03:38:35.134Z,64.00
2019-05-02T03:39:33.196Z,68.00
2019-05-02T03:40:39.110Z,68.00
2019-05-02T03:41:33.184Z,64.00
2019-05-02T03:42:43.897Z,88.00
2019-05-02T03:43:33.167Z,100.00
2019-05-02T03:44:33.160Z,100.00
2019-05-02T03:45:39.946Z,100.00
2019-05-02T03:46:33.143Z,108.00
2019-05-02T03:47:36.775Z,124.00
2019-05-02T03:48:33.271Z,112.00
2019-05-02T03:49:33.122Z,108.00
2019-05-02T03:50:35.448Z,132.00
2019-05-02T03:51:33.109Z,148.00
2019-05-02T03:52:36.502Z,152.00
2019-05-02T03:53:33.092Z,140.00
2019-05-02T03:54:33.098Z,144.00
2019-05-02T03:55:33.998Z,156.00
2019-05-02T03:56:33.071Z,152.00
2019-05-02T03:57:35.873Z,176.00
2019-05-02T03:58:33.056Z,160.00
2019-05-02T03:59:38.866Z,172.00
2019-05-02T04:00:33.043Z,216.00
2019-05-02T04:01:34.614Z,256.00
2019-05-02T04:02:33.027Z,268.00
2019-05-02T04:03:34.150Z,236.00
2019-05-02T04:04:33.012Z,220.00
2019-05-02T04:05:33.662Z,220.00
2019-05-02T04:06:32.997Z,244.00
2019-05-02T04:07:39.833Z,224.00
2019-05-02T04:08:32.982Z,228.00
2019-05-02T04:09:38.708Z,264.00
2019-05-02T04:10:32.992Z,320.00
2019-05-02T04:11:39.250Z,340.00
2019-05-02T04:12:33.382Z,304.00
2019-05-02T04:13:36.326Z,308.00
2019-05-02T04:14:38.044Z,356.00
2019-05-02T04:15:35.251Z,368.00
2019-05-02T04:16:32.923Z,432.00
2019-05-02T04:17:35.790Z,476.00
2019-05-02T04:18:32.914Z,524.00
2019-05-02T04:19:34.924Z,572.00
2019-05-02T04:20:32.892Z,608.00
2019-05-02T04:21:32.888Z,640.00
2019-05-02T04:22:32.881Z,592.00
2019-05-02T04:23:32.875Z,608.00
2019-05-02T04:24:32.897Z,592.00
2019-05-02T04:25:34.079Z,600.00
2019-05-02T04:26:32.852Z,616.00
2019-05-02T04:27:34.234Z,596.00
2019-05-02T04:28:32.838Z,572.00
2019-05-02T04:29:33.236Z,636.00
2019-05-02T04:30:32.825Z,636.00
2019-05-02T04:31:33.919Z,696.00
2019-05-02T04:32:32.814Z,628.00
2019-05-02T04:33:34.541Z,724.00
2019-05-02T04:34:32.800Z,812.00
2019-05-02T04:35:34.904Z,752.00
2019-05-02T04:36:32.775Z,684.00
2019-05-02T04:37:34.360Z,688.00
2019-05-02T04:38:44.525Z,724.00
2019-05-02T04:39:32.756Z,716.00
2019-05-02T04:40:35.009Z,812.00
2019-05-02T04:41:34.424Z,928.00
2019-05-02T04:42:32.737Z,792.00
2019-05-02T04:43:32.728Z,708.00
2019-05-02T04:44:40.994Z,876.00
2019-05-02T04:45:50.840Z,988.00
2019-05-02T04:46:32.712Z,904.00
2019-05-02T04:47:32.700Z,828.00
2019-05-02T04:48:34.615Z,768.00
2019-05-02T04:49:35.783Z,752.00
2019-05-02T04:50:32.677Z,856.00
2019-05-02T04:51:32.669Z,996.00
2019-05-02T04:52:38.513Z,1080.00
2019-05-02T04:53:40.878Z,948.00
2019-05-02T04:54:32.899Z,888.00
2019-05-02T04:55:33.593Z,856.00
2019-05-02T04:56:32.641Z,928.00
2019-05-02T04:57:36.756Z,944.00
2019-05-02T04:58:36.819Z,1088.00
2019-05-02T04:59:33.249Z,1176.00
2019-05-02T05:00:32.616Z,1128.00
2019-05-02T05:01:42.244Z,1104.00
2019-05-02T05:02:36.475Z,1140.00
2019-05-02T05:03:32.592Z,1052.00
2019-05-02T05:04:41.990Z,1148.00
2019-05-02T05:05:32.575Z,1300.00
2019-05-02T05:06:32.566Z,1220.00
2019-05-02T05:07:43.494Z,1356.00
2019-05-02T05:08:32.562Z,1260.00
2019-05-02T05:09:32.553Z,1280.00
2019-05-02T05:10:40.227Z,1224.00
2019-05-02T05:11:32.533Z,1256.00
2019-05-02T05:12:37.332Z,1276.00
2019-05-02T05:13:32.517Z,1424.00
2019-05-02T05:14:41.274Z,1328.00
2019-05-02T05:15:40.256Z,1336.00
2019-05-02T05:16:32.497Z,1352.00
2019-05-02T05:17:34.008Z,1296.00
2019-05-02T05:18:32.482Z,1288.00
2019-05-02T05:19:32.883Z,1168.00
2019-05-02T05:20:32.465Z,1248.00
2019-05-02T05:21:32.462Z,1228.00
2019-05-02T05:22:38.489Z,1096.00
2019-05-02T05:23:32.454Z,1204.00
2019-05-02T05:24:32.790Z,1188.00
2019-05-02T05:25:32.436Z,1196.00
2019-05-02T05:26:33.777Z,1216.00
2019-05-02T05:27:32.426Z,1160.00
2019-05-02T05:28:35.136Z,1300.00
2019-05-02T05:29:32.410Z,1360.00
2019-05-02T05:30:32.402Z,1284.00
2019-05-02T05:31:32.394Z,1504.00
2019-05-02T05:32:32.387Z,1752.00
2019-05-02T05:33:32.380Z,1820.00
2019-05-02T05:34:32.893Z,1928.00
2019-05-02T05:35:32.368Z,1932.00
2019-05-02T05:36:34.103Z,2112.00
2019-05-02T05:37:32.351Z,2176.00
2019-05-02T05:38:34.432Z,2204.00
2019-05-02T05:39:32.344Z,2080.00
2019-05-02T05:40:32.391Z,2272.00
2019-05-02T05:41:32.332Z,2232.00
2019-05-02T05:42:33.343Z,2056.00
2019-05-02T05:43:32.310Z,2236.00
2019-05-02T05:44:32.825Z,2236.00
2019-05-02T05:45:32.298Z,2244.00
2019-05-02T05:46:33.504Z,2236.00
2019-05-02T05:47:32.282Z,2412.00
2019-05-02T05:48:36.491Z,2168.00
2019-05-02T05:49:32.281Z,2100.00
2019-05-02T05:50:36.877Z,2068.00
2019-05-02T05:51:32.258Z,2040.00
2019-05-02T05:52:33.175Z,2076.00
2019-05-02T05:53:32.244Z,1856.00
2019-05-02T05:54:33.053Z,1896.00
2019-05-02T05:55:32.232Z,2020.00
2019-05-02T05:56:32.550Z,1916.00
2019-05-02T05:57:32.224Z,2376.00
2019-05-02T05:58:32.209Z,2272.00
2019-05-02T05:59:32.277Z,2144.00
2019-05-02T06:00:32.199Z,2064.00
2019-05-02T06:01:34.842Z,2068.00
2019-05-02T06:02:32.207Z,2116.00
2019-05-02T06:03:34.037Z,2336.00
2019-05-02T06:04:33.338Z,2208.00
2019-05-02T06:05:33.319Z,2128.00
2019-05-02T06:06:32.159Z,2000.00
2019-05-02T06:07:33.616Z,1952.00
2019-05-02T06:08:32.144Z,1864.00
2019-05-02T06:09:32.499Z,1904.00
2019-05-02T06:10:32.128Z,1964.00
2019-05-02T06:11:32.125Z,2012.00
2019-05-02T06:12:35.468Z,2012.00
2019-05-02T06:13:32.110Z,2084.00
2019-05-02T06:14:34.445Z,2236.00
2019-05-02T06:15:33.908Z,2232.00
2019-05-02T06:16:32.090Z,2284.00
2019-05-02T06:17:32.089Z,2648.00
2019-05-02T06:18:36.489Z,2532.00
2019-05-02T06:19:32.070Z,2864.00
2019-05-02T06:20:32.066Z,2848.00
2019-05-02T06:21:32.057Z,2780.00
2019-05-02T06:22:32.049Z,2824.00
2019-05-02T06:23:36.271Z,2904.00
2019-05-02T06:24:33.923Z,3012.00
2019-05-02T06:25:34.350Z,3128.00
2019-05-02T06:26:32.031Z,3032.00
2019-05-02T06:27:32.024Z,2760.00
2019-05-02T06:28:36.237Z,2952.00
2019-05-02T06:29:32.006Z,3036.00
2019-05-02T06:30:32.378Z,2820.00
2019-05-02T06:31:31.995Z,3080.00
2019-05-02T06:32:31.988Z,3096.00
2019-05-02T06:33:32.361Z,2864.00
2019-05-02T06:34:31.974Z,2940.00
2019-05-02T06:35:31.970Z,3200.00
2019-05-02T06:36:36.528Z,2988.00
2019-05-02T06:37:31.957Z,2964.00
2019-05-02T06:38:31.949Z,3220.00
2019-05-02T06:39:32.220Z,3320.00
2019-05-02T06:40:31.943Z,3092.00
2019-05-02T06:41:31.932Z,3088.00
2019-05-02T06:42:32.806Z,3252.00
2019-05-02T06:43:31.922Z,3116.00
2019-05-02T06:44:31.915Z,3028.00
2019-05-02T06:45:32.343Z,3096.00
2019-05-02T06:46:31.901Z,2936.00
2019-05-02T06:47:35.958Z,3020.00
2019-05-02T06:48:31.892Z,3280.00
2019-05-02T06:49:31.893Z,2960.00
2019-05-02T06:50:33.386Z,3060.00
2019-05-02T06:51:31.878Z,2968.00
2019-05-02T06:52:32.775Z,3004.00
2019-05-02T06:53:34.861Z,2908.00
2019-05-02T06:54:31.859Z,2828.00
2019-05-02T06:55:36.270Z,3148.00
2019-05-02T06:56:31.841Z,2736.00
2019-05-02T06:57:31.835Z,2932.00
2019-05-02T06:58:31.830Z,2852.00
2019-05-02T06:59:31.823Z,3008.00
2019-05-02T07:00:38.520Z,3044.00
2019-05-02T07:01:31.816Z,2844.00
2019-05-02T07:02:33.519Z,2952.00
2019-05-02T07:03:31.799Z,2956.00
2019-05-02T07:04:31.796Z,2720.00
2019-05-02T07:05:31.792Z,2836.00
2019-05-02T07:06:40.104Z,2724.00
2019-05-02T07:07:36.886Z,2692.00
2019-05-02T07:08:31.904Z,2616.00
2019-05-02T07:09:40.438Z,2900.00
2019-05-02T07:10:44.061Z,2692.00
2019-05-02T07:11:33.312Z,2484.00
2019-05-02T07:12:31.747Z,2552.00
2019-05-02T07:13:36.462Z,2556.00
2019-05-02T07:14:31.743Z,2572.00
2019-05-02T07:15:33.534Z,2708.00
2019-05-02T07:16:38.453Z,2792.00
2019-05-02T07:17:32.423Z,2652.00
2019-05-02T07:18:31.709Z,2772.00
2019-05-02T07:19:31.707Z,2792.00
2019-05-02T07:20:35.199Z,2748.00
2019-05-02T07:21:31.695Z,2900.00
2019-05-02T07:22:33.229Z,2872.00
2019-05-02T07:23:31.681Z,2824.00
2019-05-02T07:24:32.722Z,3032.00
2019-05-02T07:25:31.671Z,3068.00
2019-05-02T07:26:31.662Z,2976.00
2019-05-02T07:27:33.760Z,2636.00
2019-05-02T07:28:31.656Z,2568.00
2019-05-02T07:29:31.647Z,2552.00
2019-05-02T07:30:35.102Z,2736.00
2019-05-02T07:31:31.632Z,2632.00
2019-05-02T07:32:31.629Z,2552.00
2019-05-02T07:33:32.196Z,2500.00
2019-05-02T07:34:31.615Z,2692.00
2019-05-02T07:35:31.611Z,2544.00
2019-05-02T07:36:36.366Z,2436.00
2019-05-02T07:37:31.597Z,2548.00
2019-05-02T07:38:31.593Z,2592.00
2019-05-02T07:39:31.594Z,2560.00
2019-05-02T07:40:31.581Z,2416.00
2019-05-02T07:41:31.574Z,2620.00
2019-05-02T07:42:31.575Z,2540.00
2019-05-02T07:43:31.564Z,2752.00
2019-05-02T07:44:32.692Z,2660.00
2019-05-02T07:45:31.606Z,2740.00
2019-05-02T07:46:31.549Z,2628.00
2019-05-02T07:47:34.724Z,2928.00
2019-05-02T07:48:31.533Z,2496.00
2019-05-02T07:49:32.417Z,2700.00
2019-05-02T07:50:31.522Z,2600.00
2019-05-02T07:51:31.523Z,2632.00
2019-05-02T07:52:33.637Z,2924.00
2019-05-02T07:53:31.508Z,2928.00
2019-05-02T07:54:31.505Z,2828.00
2019-05-02T07:55:35.434Z,2892.00
2019-05-02T07:56:31.489Z,3116.00
2019-05-02T07:57:32.389Z,3132.00
2019-05-02T07:58:31.477Z,2912.00
2019-05-02T07:59:31.473Z,3072.00
2019-05-02T08:00:32.192Z,3372.00
2019-05-02T08:01:31.461Z,3692.00
2019-05-02T08:02:31.452Z,3372.00
2019-05-02T08:03:33.616Z,3844.00
2019-05-02T08:04:31.443Z,3876.00
2019-05-02T08:05:31.437Z,3412.00
2019-05-02T08:06:35.316Z,3368.00
2019-05-02T08:07:34.242Z,3832.00
2019-05-02T08:08:31.863Z,3264.00
2019-05-02T08:09:31.414Z,3400.00
2019-05-02T08:10:31.410Z,3440.00
2019-05-02T08:11:32.314Z,3416.00
2019-05-02T08:12:31.396Z,3228.00
2019-05-02T08:13:31.646Z,3176.00
2019-05-02T08:14:34.597Z,3476.00
2019-05-02T08:15:31.384Z,3300.00
2019-05-02T08:16:31.374Z,3352.00
2019-05-02T08:17:31.368Z,3912.00
2019-05-02T08:18:31.757Z,3476.00
2019-05-02T08:19:31.360Z,3324.00
2019-05-02T08:20:31.353Z,3340.00
2019-05-02T08:21:32.592Z,3124.00
2019-05-02T08:22:31.343Z,3036.00
2019-05-02T08:23:31.337Z,3424.00
2019-05-02T08:24:33.057Z,3352.00
2019-05-02T08:25:31.327Z,3220.00
2019-05-02T08:26:31.320Z,3040.00
2019-05-02T08:27:34.616Z,3252.00
2019-05-02T08:28:31.307Z,3316.00
2019-05-02T08:29:31.303Z,3252.00
2019-05-02T08:30:35.361Z,3304.00
2019-05-02T08:31:31.294Z,3428.00
2019-05-02T08:32:31.287Z,3684.00
2019-05-02T08:33:34.810Z,3084.00
2019-05-02T08:34:31.296Z,3272.00
2019-05-02T08:35:31.272Z,3124.00
2019-05-02T08:36:31.262Z,2900.00
2019-05-02T08:37:35.393Z,3844.00
2019-05-02T08:38:31.257Z,3616.00
2019-05-02T08:39:33.743Z,3432.00
2019-05-02T08:40:31.244Z,3072.00
2019-05-02T08:41:31.239Z,3088.00
2019-05-02T08:42:32.567Z,3092.00
2019-05-02T08:43:31.228Z,3604.00
2019-05-02T08:44:31.223Z,3512.00
2019-05-02T08:45:33.064Z,3580.00
2019-05-02T08:46:31.211Z,3748.00
2019-05-02T08:47:31.210Z,3332.00
2019-05-02T08:48:31.228Z,3440.00
2019-05-02T08:49:31.195Z,3652.00
2019-05-02T08:50:31.897Z,3260.00
2019-05-02T08:51:31.188Z,3276.00
2019-05-02T08:52:31.231Z,3512.00
2019-05-02T08:53:31.175Z,3472.00
2019-05-02T08:54:32.904Z,3420.00
2019-05-02T08:55:31.165Z,3412.00
2019-05-02T08:56:31.156Z,3676.00
2019-05-02T08:57:34.567Z,3696.00
2019-05-02T08:58:31.150Z,4048.00
2019-05-02T08:59:31.144Z,3324.00
2019-05-02T09:00:32.049Z,3276.00
2019-05-02T09:01:35.276Z,3280.00
2019-05-02T09:02:40.798Z,3392.00
2019-05-02T09:03:38.939Z,3604.00
2019-05-02T09:04:31.115Z,3500.00
2019-05-02T09:05:31.110Z,4140.00
2019-05-02T09:06:31.107Z,3604.00
2019-05-02T09:07:31.727Z,3560.00
2019-05-02T09:08:31.095Z,3584.00
2019-05-02T09:09:31.094Z,3648.00
2019-05-02T09:10:31.084Z,3624.00
2019-05-02T09:11:31.079Z,3644.00
2019-05-02T09:12:31.976Z,3656.00
2019-05-02T09:13:33.013Z,3704.00
2019-05-02T09:14:32.202Z,4152.00
2019-05-02T09:15:31.754Z,4468.00
2019-05-02T09:16:32.838Z,4040.00
2019-05-02T09:17:36.134Z,3892.00
2019-05-02T09:18:38.633Z,4160.00
2019-05-02T09:19:34.562Z,4112.00
2019-05-02T09:20:31.944Z,4340.00
2019-05-02T09:21:34.600Z,4528.00
2019-05-02T09:22:32.781Z,4504.00
2019-05-02T09:23:34.997Z,4704.00
2019-05-02T09:24:32.614Z,5076.00
2019-05-02T09:25:32.393Z,4448.00
2019-05-02T09:26:36.200Z,5104.00
2019-05-02T09:27:31.844Z,4768.00
2019-05-02T09:28:32.092Z,4396.00
2019-05-02T09:29:32.757Z,4808.00
2019-05-02T09:30:32.719Z,4656.00
2019-05-02T09:31:31.970Z,4960.00
2019-05-02T09:32:32.241Z,5352.00
2019-05-02T09:33:32.227Z,5484.00
2019-05-02T09:34:31.876Z,4884.00
2019-05-02T09:35:32.792Z,4912.00
2019-05-02T09:36:32.294Z,5444.00
2019-05-02T09:37:32.139Z,4672.00
2019-05-02T09:38:32.810Z,4612.00
2019-05-02T09:39:34.747Z,4532.00
2019-05-02T09:40:31.873Z,4604.00
2019-05-02T09:41:34.481Z,5100.00
2019-05-02T09:42:32.518Z,5344.00
2019-05-02T09:43:34.859Z,4980.00
2019-05-02T09:44:33.123Z,5608.00
2019-05-02T09:45:33.374Z,5228.00
2019-05-02T09:46:32.449Z,5896.00
2019-05-02T09:47:33.228Z,5660.00
2019-05-02T09:48:31.918Z,5240.00
2019-05-02T09:49:32.435Z,4600.00
2019-05-02T09:50:32.224Z,4808.00
2019-05-02T09:51:32.419Z,5520.00
2019-05-02T09:52:34.077Z,5636.00
2019-05-02T09:53:32.418Z,5568.00
2019-05-02T09:54:32.256Z,5672.00
2019-05-02T09:55:31.807Z,5968.00
2019-05-02T09:56:32.541Z,6128.00
2019-05-02T09:57:31.926Z,5700.00
2019-05-02T09:58:32.044Z,5568.00
2019-05-02T09:59:32.874Z,5192.00
2019-05-02T10:00:32.256Z,5288.00
2019-05-02T10:01:31.731Z,5236.00
2019-05-02T10:02:32.420Z,5744.00
2019-05-02T10:03:31.927Z,5648.00
2019-05-02T10:04:32.566Z,4988.00
2019-05-02T10:05:32.201Z,5176.00
2019-05-02T10:06:32.159Z,4812.00
2019-05-02T10:07:32.429Z,4816.00
2019-05-02T10:08:32.134Z,4656.00
2019-05-02T10:09:32.390Z,4640.00
2019-05-02T10:10:32.351Z,4420.00
2019-05-02T10:11:32.291Z,5196.00
2019-05-02T10:12:32.091Z,4592.00
2019-05-02T10:13:31.848Z,4488.00
2019-05-02T10:14:32.856Z,4932.00
2019-05-02T10:15:32.694Z,4616.00
2019-05-02T10:16:31.977Z,4740.00
2019-05-02T10:17:32.186Z,5000.00
2019-05-02T10:18:32.815Z,4192.00
2019-05-02T10:19:32.690Z,4616.00
2019-05-02T10:20:36.008Z,4680.00
2019-05-02T10:21:31.876Z,5592.00
2019-05-02T10:22:33.789Z,5232.00
2019-05-02T10:23:32.047Z,4816.00
2019-05-02T10:24:32.254Z,5536.00
2019-05-02T10:25:38.299Z,5444.00
2019-05-02T10:26:32.865Z,5392.00
2019-05-02T10:27:32.246Z,5772.00
2019-05-02T10:28:31.730Z,5372.00
2019-05-02T10:29:32.896Z,5672.00
2019-05-02T10:30:33.687Z,6000.00
2019-05-02T10:31:35.751Z,5708.00
2019-05-02T10:32:32.479Z,5064.00
2019-05-02T10:33:33.705Z,5000.00
2019-05-02T10:34:32.782Z,4664.00
2019-05-02T10:35:37.269Z,4304.00
2019-05-02T10:36:32.407Z,3972.00
2019-05-02T10:37:38.031Z,4252.00
2019-05-02T10:38:32.580Z,3716.00
2019-05-02T10:39:36.570Z,4056.00
2019-05-02T10:40:32.178Z,3968.00
2019-05-02T10:41:33.554Z,4328.00
2019-05-02T10:42:32.472Z,3844.00
2019-05-02T10:43:32.759Z,3712.00
2019-05-02T10:44:32.790Z,3744.00
2019-05-02T10:45:32.104Z,4080.00
2019-05-02T10:46:36.047Z,3676.00
2019-05-02T10:47:32.303Z,4008.00
2019-05-02T10:48:32.946Z,3952.00
2019-05-02T10:49:32.066Z,4084.00
2019-05-02T10:50:32.744Z,3944.00
2019-05-02T10:51:31.681Z,5136.00
2019-05-02T10:52:34.021Z,5956.00
2019-05-02T10:53:32.207Z,4680.00
2019-05-02T10:54:33.877Z,5268.00
2019-05-02T10:55:30.598Z,4480.00
2019-05-02T10:56:32.422Z,5228.00
2019-05-02T10:57:32.573Z,4372.00
2019-05-02T10:58:34.156Z,4200.00
2019-05-02T10:59:32.622Z,4872.00
2019-05-02T11:00:32.464Z,4300.00
2019-05-02T11:01:32.272Z,4312.00
2019-05-02T11:02:32.607Z,4604.00
2019-05-02T11:03:31.930Z,5604.00
2019-05-02T11:04:32.354Z,5576.00
2019-05-02T11:05:31.558Z,5880.00
2019-05-02T11:06:32.318Z,5420.00
2019-05-02T11:07:32.506Z,5716.00
2019-05-02T11:08:31.925Z,5964.00
2019-05-02T11:09:31.910Z,5280.00
2019-05-02T11:10:32.298Z,5144.00
2019-05-02T11:11:32.233Z,4932.00
2019-05-02T11:12:41.922Z,5464.00
2019-05-02T11:13:32.181Z,5068.00
2019-05-02T11:14:31.894Z,4552.00
2019-05-02T11:15:32.515Z,5580.00
2019-05-02T11:16:32.144Z,6964.00
2019-05-02T11:17:32.311Z,8104.00
2019-05-02T11:18:40.258Z,8184.00
2019-05-02T11:19:31.803Z,8436.00
2019-05-02T11:20:31.896Z,7428.00
2019-05-02T11:21:32.219Z,6780.00
2019-05-02T11:22:32.103Z,7900.00
2019-05-02T11:23:32.702Z,6896.00
2019-05-02T11:24:31.622Z,6540.00
2019-05-02T11:25:31.935Z,5220.00
2019-05-02T11:26:32.327Z,5220.00
2019-05-02T11:27:30.468Z,5204.00
2019-05-02T11:28:32.278Z,5100.00
2019-05-02T11:29:32.241Z,4984.00
2019-05-02T11:30:31.963Z,4800.00
2019-05-02T11:31:32.280Z,5064.00
2019-05-02T11:32:32.551Z,4636.00
2019-05-02T11:33:32.457Z,4500.00
2019-05-02T11:34:32.497Z,4304.00
2019-05-02T11:35:31.810Z,4684.00
2019-05-02T11:36:32.583Z,5164.00
2019-05-02T11:37:30.431Z,6132.00
2019-05-02T11:38:48.404Z,7504.00
2019-05-02T11:39:37.298Z,8804.00
2019-05-02T11:40:32.164Z,9528.00
2019-05-02T11:41:31.731Z,9288.00
2019-05-02T11:42:32.252Z,8380.00
2019-05-02T11:43:32.503Z,7504.00
2019-05-02T11:44:32.462Z,7352.00
2019-05-02T11:45:32.232Z,7052.00
2019-05-02T11:46:32.393Z,7544.00
2019-05-02T11:47:30.391Z,6552.00
2019-05-02T11:48:31.991Z,8440.00
2019-05-02T11:49:32.023Z,7244.00
2019-05-02T11:50:31.991Z,6072.00
2019-05-02T11:51:32.429Z,5772.00
2019-05-02T11:52:33.032Z,5364.00
2019-05-02T11:53:32.542Z,6256.00
2019-05-02T11:54:31.982Z,6640.00
2019-05-02T11:55:31.939Z,5832.00
2019-05-02T11:56:32.797Z,7328.00
2019-05-02T11:57:32.713Z,7528.00
2019-05-02T11:58:32.380Z,6912.00
2019-05-02T11:59:31.965Z,7292.00
2019-05-02T12:00:32.225Z,7444.00
2019-05-02T12:01:37.134Z,5700.00
2019-05-02T12:02:32.015Z,5060.00
2019-05-02T12:03:35.484Z,5396.00
2019-05-02T12:04:32.453Z,5296.00
2019-05-02T12:05:31.849Z,4740.00
2019-05-02T12:06:30.323Z,3964.00
2019-05-02T12:07:32.334Z,3960.00
2019-05-02T12:08:31.907Z,3584.00
2019-05-02T12:09:31.982Z,4832.00
2019-05-02T12:10:33.016Z,4104.00
2019-05-02T12:11:32.227Z,4860.00
2019-05-02T12:12:34.284Z,4804.00
2019-05-02T12:13:32.233Z,5332.00
2019-05-02T12:14:34.575Z,6072.00
2019-05-02T12:15:32.295Z,6868.00
2019-05-02T12:16:32.142Z,5532.00
2019-05-02T12:17:30.285Z,5076.00
2019-05-02T12:18:30.280Z,5692.00
2019-05-02T12:19:32.116Z,4828.00
2019-05-02T12:20:33.775Z,4352.00
2019-05-02T12:21:32.324Z,3872.00
2019-05-02T12:22:32.114Z,4868.00
2019-05-02T12:23:32.053Z,4864.00
2019-05-02T12:24:31.889Z,4396.00
2019-05-02T12:25:30.266Z,3796.00
2019-05-02T12:26:32.182Z,3724.00
2019-05-02T12:27:31.849Z,4464.00